createdAt,value
2019-01-06T00:01:57.213Z,102728.00
2019-01-06T00:04:45.038Z,102723.30
2019-01-06T00:07:52.071Z,102721.98
2019-01-06T00:10:39.994Z,102720.09
2019-01-06T00:13:47.026Z,102724.13
2019-01-06T00:16:34.925Z,102717.60
2019-01-06T00:19:42.006Z,102715.48
2019-01-06T00:22:41.290Z,102719.09
2019-01-06T00:25:29.237Z,102718.84
2019-01-06T00:28:36.229Z,102723.29
2019-01-06T00:31:24.169Z,102720.77
2019-01-06T00:34:31.252Z,102729.57
2019-01-06T00:37:38.289Z,102717.00
2019-01-06T00:40:26.283Z,102724.75
2019-01-06T00:43:33.321Z,102724.81
2019-01-06T00:46:40.323Z,102740.36
2019-01-06T00:49:28.286Z,102736.98
2019-01-06T00:55:29.270Z,102749.02
2019-01-06T00:58:17.212Z,102748.69
2019-01-06T01:01:05.147Z,102752.65
2019-01-06T01:04:12.139Z,102767.92
2019-01-06T01:07:00.383Z,102768.45
2019-01-06T01:10:11.159Z,102763.88
2019-01-06T01:13:18.188Z,102760.33
2019-01-06T01:16:25.199Z,102782.14
2019-01-06T01:19:13.215Z,102779.66
2019-01-06T01:22:20.203Z,102788.63
2019-01-06T01:25:27.265Z,102795.80
2019-01-06T01:28:15.156Z,102791.25
2019-01-06T01:31:22.243Z,102790.17
2019-01-06T01:34:20.279Z,102793.73
2019-01-06T01:37:08.139Z,102795.14
2019-01-06T01:40:16.878Z,102800.06
2019-01-06T01:43:07.437Z,102799.84
2019-01-06T01:46:15.956Z,102806.14
2019-01-06T01:49:03.884Z,102811.69
2019-01-06T01:52:10.879Z,102811.34
2019-01-06T01:55:17.909Z,102808.27
2019-01-06T01:58:19.732Z,102806.03
2019-01-06T02:01:26.687Z,102805.23
2019-01-06T02:04:33.690Z,102806.61
2019-01-06T02:07:40.733Z,102808.78
2019-01-06T02:10:47.742Z,102802.14
2019-01-06T02:13:54.790Z,102809.59
2019-01-06T02:17:01.816Z,102811.76
2019-01-06T02:20:08.865Z,102803.75
2019-01-06T02:23:15.849Z,102799.74
2019-01-06T02:26:22.877Z,102799.22
2019-01-06T02:29:29.954Z,102795.73
2019-01-06T02:32:37.071Z,102805.29
2019-01-06T02:35:25.157Z,102810.84
2019-01-06T02:38:32.180Z,102802.95
2019-01-06T02:41:39.171Z,102802.31
2019-01-06T02:44:46.204Z,102806.20
2019-01-06T02:47:34.088Z,102798.70
2019-01-06T02:50:41.122Z,102803.00
2019-01-06T02:53:24.256Z,102808.55
2019-01-06T02:56:12.077Z,102804.14
2019-01-06T02:59:00.019Z,102797.45
2019-01-06T03:01:47.917Z,102796.76
2019-01-06T03:04:49.407Z,102795.55
2019-01-06T03:07:56.457Z,102789.31
2019-01-06T03:11:03.784Z,102793.66
2019-01-06T03:14:10.818Z,102789.08
2019-01-06T03:17:17.818Z,102796.29
2019-01-06T03:20:25.171Z,102798.64
2019-01-06T03:23:32.226Z,102796.13
2019-01-06T03:26:40.742Z,102789.88
2019-01-06T03:29:47.738Z,102787.88
2019-01-06T03:32:54.797Z,102785.75
2019-01-06T03:36:01.780Z,102786.56
2019-01-06T03:39:08.808Z,102786.16
2019-01-06T03:42:15.842Z,102784.33
2019-01-06T03:45:22.879Z,102793.66
2019-01-06T03:48:27.867Z,102791.70
2019-01-06T03:51:16.081Z,102788.49
2019-01-06T03:54:04.021Z,102784.72
2019-01-06T03:56:51.915Z,102780.33
2019-01-06T04:00:00.908Z,102787.14
2019-01-06T04:03:07.698Z,102785.08
2019-01-06T04:06:16.184Z,102781.52
2019-01-06T04:09:04.127Z,102780.25
2019-01-06T04:11:52.095Z,102773.25
2019-01-06T04:14:59.125Z,102775.42
2019-01-06T04:18:06.158Z,102766.25
2019-01-06T04:21:13.163Z,102767.56
2019-01-06T04:24:20.187Z,102764.54
2019-01-06T04:27:27.252Z,102766.66
2019-01-06T04:30:15.262Z,102761.27
2019-01-06T04:33:22.259Z,102767.62
2019-01-06T04:36:29.663Z,102773.58
2019-01-06T04:39:36.716Z,102777.05
2019-01-06T04:42:43.706Z,102781.24
2019-01-06T04:45:50.769Z,102778.37
2019-01-06T04:48:57.758Z,102778.07
2019-01-06T04:52:04.789Z,102783.62
2019-01-06T04:55:01.420Z,102780.00
2019-01-06T04:57:49.280Z,102790.48
2019-01-06T05:00:37.255Z,102797.34
2019-01-06T05:03:25.529Z,102802.73
2019-01-06T05:06:32.554Z,102807.53
2019-01-06T05:09:39.548Z,102805.82
2019-01-06T05:12:27.406Z,102805.98
2019-01-06T05:15:15.226Z,102808.55
2019-01-06T05:18:22.574Z,102803.20
2019-01-06T05:21:29.580Z,102809.56
2019-01-06T05:24:36.599Z,102817.23
2019-01-06T05:27:24.512Z,102814.00
2019-01-06T05:30:12.439Z,102810.67
2019-01-06T05:33:00.271Z,102815.06
2019-01-06T05:36:07.309Z,102806.30
2019-01-06T05:39:14.306Z,102821.16
2019-01-06T05:42:02.258Z,102811.92
2019-01-06T05:48:02.877Z,102813.79
2019-01-06T05:51:09.905Z,102815.20
2019-01-06T05:54:17.227Z,102812.73
2019-01-06T05:57:05.579Z,102808.54
2019-01-06T06:00:12.586Z,102819.64
2019-01-06T06:03:00.529Z,102816.86
2019-01-06T06:05:48.426Z,102822.00
2019-01-06T06:08:55.480Z,102825.44
2019-01-06T06:12:02.492Z,102824.72
2019-01-06T06:14:50.744Z,102826.44
2019-01-06T06:18:05.162Z,102828.61
2019-01-06T06:21:06.480Z,102824.47
2019-01-06T06:24:13.517Z,102821.28
2019-01-06T06:27:20.893Z,102831.88
2019-01-06T06:30:27.924Z,102831.83
2019-01-06T06:33:15.823Z,102826.56
2019-01-06T06:36:22.871Z,102835.05
2019-01-06T06:39:29.937Z,102835.95
2019-01-06T06:42:18.098Z,102842.00
2019-01-06T06:45:06.030Z,102832.30
2019-01-06T06:48:13.014Z,102845.88
2019-01-06T06:51:33.622Z,102845.93
2019-01-06T06:54:21.790Z,102852.25
2019-01-06T06:57:28.953Z,102861.59
2019-01-06T07:00:55.052Z,102861.23
2019-01-06T07:04:04.091Z,102867.23
2019-01-06T07:07:11.084Z,102881.25
2019-01-06T07:10:18.166Z,102887.61
2019-01-06T07:13:21.623Z,102884.27
2019-01-06T07:16:28.665Z,102882.61
2019-01-06T07:19:36.002Z,102886.94
2019-01-06T07:22:40.698Z,102887.84
2019-01-06T07:25:47.735Z,102881.58
2019-01-06T07:28:54.793Z,102884.56
2019-01-06T07:32:01.822Z,102884.56
2019-01-06T07:35:08.826Z,102894.40
2019-01-06T07:38:15.891Z,102891.47
2019-01-06T07:41:24.354Z,102897.42
2019-01-06T07:44:31.391Z,102896.66
2019-01-06T07:47:38.380Z,102893.32
2019-01-06T07:50:45.643Z,102897.56
2019-01-06T07:53:33.984Z,102895.94
2019-01-06T07:59:35.782Z,102899.06
2019-01-06T08:02:42.769Z,102908.49
2019-01-06T08:05:50.031Z,102903.98
2019-01-06T08:08:57.221Z,102910.75
2019-01-06T08:11:45.078Z,102906.15
2019-01-06T08:14:52.120Z,102909.48
2019-01-06T08:17:59.246Z,102910.30
2019-01-06T08:20:47.264Z,102896.48
2019-01-06T08:23:54.577Z,102904.89
2019-01-06T08:27:01.567Z,102915.45
2019-01-06T08:30:08.603Z,102926.64
2019-01-06T08:32:56.516Z,102934.59
2019-01-06T08:36:03.561Z,102944.47
2019-01-06T08:39:10.623Z,102941.05
2019-01-06T08:41:58.863Z,102945.47
2019-01-06T08:45:05.896Z,102945.06
2019-01-06T08:48:12.885Z,102942.22
2019-01-06T08:51:00.746Z,102944.84
2019-01-06T08:54:07.807Z,102944.43
2019-01-06T08:56:55.718Z,102939.88
2019-01-06T09:00:02.818Z,102940.03
2019-01-06T09:03:10.106Z,102935.56
2019-01-06T09:06:17.190Z,102941.56
2019-01-06T09:09:05.524Z,102936.18
2019-01-06T09:12:12.556Z,102943.05
2019-01-06T09:15:19.914Z,102946.06
2019-01-06T09:18:27.063Z,102946.20
2019-01-06T09:21:35.708Z,102942.08
2019-01-06T09:24:42.741Z,102947.19
2019-01-06T09:27:49.829Z,102948.58
2019-01-06T09:30:58.345Z,102947.76
2019-01-06T09:34:05.466Z,102943.92
2019-01-06T09:37:13.959Z,102955.44
2019-01-06T09:40:21.000Z,102955.16
2019-01-06T09:43:27.989Z,102951.44
2019-01-06T09:46:35.036Z,102958.70
2019-01-06T09:49:42.022Z,102957.65
2019-01-06T09:52:49.065Z,102951.08
2019-01-06T09:55:36.950Z,102946.17
2019-01-06T09:58:25.984Z,102947.58
2019-01-06T10:01:32.973Z,102949.01
2019-01-06T10:04:20.897Z,102949.95
2019-01-06T10:07:27.899Z,102958.84
2019-01-06T10:10:37.614Z,102960.76
2019-01-06T10:13:44.640Z,102963.45
2019-01-06T10:19:55.885Z,102951.48
2019-01-06T10:25:49.679Z,102961.96
2019-01-06T10:28:37.924Z,102959.50
2019-01-06T10:31:44.973Z,102958.76
2019-01-06T10:34:32.879Z,102966.73
2019-01-06T10:37:39.923Z,102963.53
2019-01-06T10:40:17.886Z,102955.70
2019-01-06T10:43:24.915Z,102946.56
2019-01-06T10:46:31.959Z,102946.74
2019-01-06T10:49:19.853Z,102945.34
2019-01-06T10:52:28.904Z,102945.17
2019-01-06T10:55:28.166Z,102940.81
2019-01-06T10:58:16.084Z,102943.35
2019-01-06T11:01:03.288Z,102943.73
2019-01-06T11:03:51.313Z,102942.53
2019-01-06T11:06:58.305Z,102940.95
2019-01-06T11:10:05.349Z,102942.25
2019-01-06T11:13:12.343Z,102933.91
2019-01-06T11:16:19.381Z,102933.59
2019-01-06T11:19:07.274Z,102930.74
2019-01-06T11:21:55.525Z,102930.33
2019-01-06T11:25:02.522Z,102934.61
2019-01-06T11:28:05.759Z,102932.77
2019-01-06T11:31:12.783Z,102936.20
2019-01-06T11:34:00.753Z,102929.66
2019-01-06T11:36:48.673Z,102919.06
2019-01-06T11:39:55.705Z,102920.84
2019-01-06T11:42:43.714Z,102917.22
2019-01-06T11:45:31.676Z,102909.86
2019-01-06T11:48:19.609Z,102913.34
2019-01-06T11:51:26.626Z,102905.90
2019-01-06T11:54:33.697Z,102904.27
2019-01-06T11:57:40.690Z,102905.98
2019-01-06T12:00:28.726Z,102905.65
2019-01-06T12:03:35.760Z,102907.22
2019-01-06T12:06:23.719Z,102895.98
2019-01-06T12:09:30.741Z,102900.73
2019-01-06T12:12:19.041Z,102892.78
2019-01-06T12:15:26.030Z,102891.11
2019-01-06T12:18:13.981Z,102886.40
2019-01-06T12:21:14.297Z,102886.11
2019-01-06T12:24:21.344Z,102883.57
2019-01-06T12:27:28.372Z,102878.64
2019-01-06T12:30:16.380Z,102886.83
2019-01-06T12:33:23.434Z,102884.17
2019-01-06T12:36:30.421Z,102886.80
2019-01-06T12:39:37.773Z,102880.84
2019-01-06T12:42:25.664Z,102875.80
2019-01-06T12:48:05.444Z,102877.25
2019-01-06T12:51:12.456Z,102876.47
2019-01-06T12:54:19.536Z,102884.00
2019-01-06T13:00:38.021Z,102873.05
2019-01-06T13:03:45.065Z,102877.60
2019-01-06T13:06:52.154Z,102870.63
2019-01-06T13:13:23.886Z,102877.45
2019-01-06T13:16:30.809Z,102877.35
2019-01-06T13:19:19.661Z,102877.97
2019-01-06T13:22:26.652Z,102880.39
2019-01-06T13:25:33.710Z,102872.95
2019-01-06T13:34:40.980Z,102881.61
2019-01-06T13:37:48.010Z,102882.08
2019-01-06T13:41:02.833Z,102878.22
2019-01-06T13:43:57.746Z,102876.70
2019-01-06T13:46:54.638Z,102881.72
2019-01-06T13:49:42.527Z,102882.16
2019-01-06T13:52:49.554Z,102885.76
2019-01-06T13:55:56.579Z,102881.48
2019-01-06T13:58:44.403Z,102882.36
2019-01-06T14:01:51.433Z,102889.56
2019-01-06T14:04:58.421Z,102884.81
2019-01-06T14:08:05.455Z,102877.47
2019-01-06T14:10:53.422Z,102880.36
2019-01-06T14:14:00.882Z,102889.06
2019-01-06T14:16:49.109Z,102893.19
2019-01-06T14:19:56.134Z,102897.37
2019-01-06T14:23:03.136Z,102904.98
2019-01-06T14:25:51.077Z,102905.08
2019-01-06T14:28:58.143Z,102901.75
2019-01-06T14:31:46.013Z,102912.54
2019-01-06T14:34:25.121Z,102916.53
2019-01-06T14:37:13.369Z,102915.23
2019-01-06T14:40:20.354Z,102916.02
2019-01-06T14:43:08.338Z,102918.53
2019-01-06T14:45:57.101Z,102920.15
2019-01-06T14:49:04.114Z,102922.69
2019-01-06T14:52:11.145Z,102920.72
2019-01-06T14:58:21.762Z,102928.86
2019-01-06T15:04:00.934Z,102924.84
2019-01-06T15:06:48.744Z,102922.94
2019-01-06T15:09:37.986Z,102925.00
2019-01-06T15:12:45.021Z,102914.00
2019-01-06T15:15:53.547Z,102913.88
2019-01-06T15:19:00.608Z,102911.84
2019-01-06T15:22:07.598Z,102917.93
2019-01-06T15:25:14.690Z,102914.76
2019-01-06T15:28:21.691Z,102921.38
2019-01-06T15:31:23.001Z,102921.28
2019-01-06T15:34:30.604Z,102925.33
2019-01-06T15:37:37.764Z,102922.70
2019-01-06T15:40:25.961Z,102922.73
2019-01-06T15:43:32.988Z,102918.08
2019-01-06T15:46:39.990Z,102925.61
2019-01-06T15:49:27.855Z,102930.44
2019-01-06T15:52:34.931Z,102933.45
2019-01-06T15:55:41.982Z,102929.58
2019-01-06T16:01:39.060Z,102935.55
2019-01-06T16:04:46.139Z,102932.98
2019-01-06T16:07:53.217Z,102942.16
2019-01-06T16:11:00.248Z,102936.30
2019-01-06T16:14:07.269Z,102934.63
2019-01-06T16:17:14.350Z,102934.28
2019-01-06T16:20:21.356Z,102936.44
2019-01-06T16:23:27.962Z,102939.03
2019-01-06T16:26:34.970Z,102935.67
2019-01-06T16:29:41.994Z,102936.13
2019-01-06T16:32:45.011Z,102937.26
2019-01-06T16:35:52.074Z,102942.33
2019-01-06T16:38:39.968Z,102945.75
2019-01-06T16:41:47.001Z,102949.63
2019-01-06T16:44:34.921Z,102948.77
2019-01-06T16:47:22.850Z,102951.23
2019-01-06T16:50:29.857Z,102955.59
2019-01-06T16:53:17.812Z,102955.59
2019-01-06T16:56:05.693Z,102949.25
2019-01-06T16:59:12.674Z,102944.23
2019-01-06T17:02:19.734Z,102953.12
2019-01-06T17:05:06.951Z,102954.80
2019-01-06T17:07:54.767Z,102959.39
2019-01-06T17:11:01.813Z,102962.41
2019-01-06T17:14:08.836Z,102952.64
2019-01-06T17:17:15.871Z,102957.81
2019-01-06T17:20:03.764Z,102956.10
2019-01-06T17:22:51.699Z,102954.08
2019-01-06T17:25:39.598Z,102961.48
2019-01-06T17:28:46.635Z,102962.51
2019-01-06T17:31:53.655Z,102952.70
2019-01-06T17:35:00.684Z,102961.11
2019-01-06T17:37:48.613Z,102959.88
2019-01-06T17:40:55.606Z,102954.87
2019-01-06T17:43:55.450Z,102956.16
2019-01-06T17:49:51.812Z,102957.37
2019-01-06T17:56:08.088Z,102958.19
2019-01-06T17:59:15.180Z,102955.08
2019-01-06T18:02:03.443Z,102958.87
2019-01-06T18:04:51.382Z,102947.06
2019-01-06T18:07:58.749Z,102950.89
2019-01-06T18:11:05.738Z,102964.40
2019-01-06T18:14:12.809Z,102961.77
2019-01-06T18:20:12.233Z,102966.05
2019-01-06T18:23:19.216Z,102969.37
2019-01-06T18:26:26.843Z,102971.63
2019-01-06T18:29:14.673Z,102974.03
2019-01-06T18:32:21.696Z,102973.65
2019-01-06T18:35:28.730Z,102977.97
2019-01-06T18:38:35.725Z,102976.73
2019-01-06T18:41:36.381Z,102978.86
2019-01-06T18:44:24.396Z,102980.95
2019-01-06T18:50:55.869Z,102981.84
2019-01-06T18:56:52.469Z,102979.09
2019-01-06T18:59:59.463Z,102979.41
2019-01-06T19:03:01.336Z,102978.48
2019-01-06T19:05:49.221Z,102979.68
2019-01-06T19:08:37.087Z,102979.68
2019-01-06T19:11:44.073Z,102972.52
2019-01-06T19:14:53.558Z,102975.13
2019-01-06T19:17:41.738Z,102975.60
2019-01-06T19:20:48.773Z,102979.51
2019-01-06T19:23:55.782Z,102985.06
2019-01-06T19:27:02.817Z,102978.95
2019-01-06T19:33:34.544Z,102980.11
2019-01-06T19:36:41.547Z,102986.88
2019-01-06T19:39:29.547Z,102982.24
2019-01-06T19:42:36.610Z,102978.50
2019-01-06T19:45:45.289Z,102975.20
2019-01-06T19:48:52.325Z,102967.09
2019-01-06T19:51:40.260Z,102979.39
2019-01-06T19:54:47.291Z,102974.83
2019-01-06T19:57:54.286Z,102965.95
2019-01-06T20:00:42.204Z,102964.96
2019-01-06T20:03:49.213Z,102965.87
2019-01-06T20:06:56.211Z,102977.17
2019-01-06T20:09:44.157Z,102969.05
2019-01-06T20:12:51.142Z,102959.69
2019-01-06T20:15:58.180Z,102965.63
2019-01-06T20:19:05.233Z,102966.06
2019-01-06T20:22:12.268Z,102963.16
2019-01-06T20:25:19.266Z,102961.19
2019-01-06T20:28:26.304Z,102966.13
2019-01-06T20:31:33.318Z,102968.73
2019-01-06T20:34:21.439Z,102968.35
2019-01-06T20:37:09.385Z,102962.05
2019-01-06T20:40:16.373Z,102961.95
2019-01-06T20:43:23.392Z,102966.30
2019-01-06T20:46:11.335Z,102965.81
2019-01-06T20:51:48.573Z,102964.35
2019-01-06T20:58:06.689Z,102960.48
2019-01-06T21:01:13.718Z,102959.69
2019-01-06T21:04:20.779Z,102962.95
2019-01-06T21:07:27.838Z,102964.59
2019-01-06T21:10:15.652Z,102968.44
2019-01-06T21:13:22.686Z,102967.20
2019-01-06T21:16:29.713Z,102963.67
2019-01-06T21:19:17.991Z,102964.43
2019-01-06T21:22:25.005Z,102968.27
2019-01-06T21:25:21.742Z,102965.25
2019-01-06T21:28:40.195Z,102969.02
2019-01-06T21:31:47.214Z,102966.59
2019-01-06T21:34:54.210Z,102968.27
2019-01-06T21:37:42.143Z,102964.05
2019-01-06T21:40:49.154Z,102959.77
2019-01-06T21:43:56.179Z,102962.75
2019-01-06T21:47:03.222Z,102968.27
2019-01-06T21:49:51.036Z,102966.11
2019-01-06T21:56:09.259Z,102969.02
2019-01-06T21:59:16.176Z,102959.80
2019-01-06T22:02:04.037Z,102959.08
2019-01-06T22:04:52.028Z,102956.10
2019-01-06T22:07:40.289Z,102957.68
2019-01-06T22:10:28.257Z,102959.84
2019-01-06T22:13:35.321Z,102955.66
2019-01-06T22:16:23.212Z,102953.94
2019-01-06T22:19:30.242Z,102953.53
2019-01-06T22:22:35.566Z,102958.56
2019-01-06T22:25:42.593Z,102945.41
2019-01-06T22:28:49.620Z,102945.06
2019-01-06T22:35:08.060Z,102936.56
2019-01-06T22:37:55.860Z,102942.05
2019-01-06T22:41:02.901Z,102942.88
2019-01-06T22:44:09.894Z,102933.59
2019-01-06T22:46:57.843Z,102936.09
2019-01-06T22:49:45.758Z,102937.29
2019-01-06T22:52:37.071Z,102935.20
2019-01-06T22:55:42.399Z,102935.48
2019-01-06T22:58:30.331Z,102919.44
2019-01-06T23:01:18.361Z,102932.59
2019-01-06T23:07:23.412Z,102932.09
2019-01-06T23:10:24.249Z,102941.30
2019-01-06T23:13:31.305Z,102929.04
2019-01-06T23:16:19.506Z,102941.27
2019-01-06T23:19:26.536Z,102937.05
2019-01-06T23:22:33.522Z,102930.27
2019-01-06T23:25:40.563Z,102929.52
2019-01-06T23:28:47.545Z,102926.36
2019-01-06T23:31:35.484Z,102913.94
2019-01-06T23:34:23.410Z,102924.02
2019-01-06T23:37:11.228Z,102918.19
2019-01-06T23:40:18.268Z,102923.77
2019-01-06T23:42:58.126Z,102925.03
2019-01-06T23:46:05.121Z,102919.07
2019-01-06T23:49:12.147Z,102919.52
2019-01-06T23:52:00.072Z,102920.85
2019-01-06T23:54:47.885Z,102929.13
2019-01-06T23:57:54.920Z,102925.09
